Time;durP1;ratioP1;P1;durP2;ratioP2;P2;SDS_P1;SDS_P2;PMS_P1;PMS_P2;Temp;Humidity;BMP_temperature;BMP_pressure;BME280_temperature;BME280_humidity;BME280_pressure;Samples;Min_cycle;Max_cycle;Signal;HPM_P1;HPM_P2
2022/12/02 00:00:56;;;;;;;1999.90;999.90;;;;;;;2.97;100.00;98283.69;5070725;28;20488;-85
2022/12/02 00:03:24;;;;;;;1999.90;999.90;;;;;;;2.96;100.00;98271.25;5071551;28;20471;-84
2022/12/02 00:05:54;;;;;;;1999.90;999.90;;;;;;;3.01;100.00;98279.44;5071285;28;20117;-81
2022/12/02 00:08:22;;;;;;;1999.90;999.90;;;;;;;2.96;100.00;98265.84;5071319;28;20028;-82
2022/12/02 00:10:51;;;;;;;1999.90;999.90;;;;;;;2.89;100.00;98264.31;5070716;28;20025;-85
2022/12/02 00:13:22;;;;;;;1999.90;999.90;;;;;;;3.11;100.00;98274.25;5075693;28;20009;-83
2022/12/02 00:16:15;;;;;;;1999.90;999.90;;;;;;;3.02;100.00;98270.28;5077178;28;20025;-87
2022/12/02 00:18:40;;;;;;;1999.90;999.90;;;;;;;2.99;100.00;98273.47;5071629;28;20025;-86
2022/12/02 00:21:06;;;;;;;1999.90;999.90;;;;;;;3.01;100.00;98274.03;5073442;28;20036;-84
2022/12/02 00:23:31;;;;;;;1999.90;999.90;;;;;;;2.98;100.00;98268.28;5077311;28;20040;-82
2022/12/02 00:25:56;;;;;;;1999.90;999.90;;;;;;;2.99;100.00;98273.47;5077697;28;20033;-85
2022/12/02 00:28:21;;;;;;;1999.90;999.90;;;;;;;3.06;100.00;98276.84;5077214;28;20668;-85
2022/12/02 00:30:47;;;;;;;1999.90;999.90;;;;;;;3.02;100.00;98274.84;5077639;28;20051;-86
2022/12/02 00:33:14;;;;;;;1999.90;999.90;;;;;;;2.98;100.00;98263.72;5078015;28;20041;-82
2022/12/02 00:35:39;;;;;;;1999.90;999.90;;;;;;;2.80;100.00;98271.97;5077904;28;20017;-83
2022/12/02 00:38:05;;;;;;;1999.90;999.90;;;;;;;2.77;100.00;98267.06;5077584;28;20032;-87
2022/12/02 00:40:31;;;;;;;1999.90;999.90;;;;;;;2.82;100.00;98269.84;5077958;28;20024;-87
2022/12/02 00:46:30;;;;;;;1999.90;999.90;;;;;;;2.87;100.00;98269.97;5077699;28;20021;-84
2022/12/02 00:48:26;;;;;;;1999.90;999.90;;;;;;;2.91;100.00;98273.84;5078384;28;20048;-85
2022/12/02 00:50:52;;;;;;;1999.90;999.90;;;;;;;2.88;100.00;98263.50;5077882;28;20009;-87
2022/12/02 00:53:17;;;;;;;1999.90;999.90;;;;;;;2.98;100.00;98269.09;5077753;28;20026;-84
2022/12/02 00:55:42;;;;;;;1999.90;999.90;;;;;;;3.08;100.00;98274.72;5077764;28;20057;-86
2022/12/02 00:58:08;;;;;;;1999.90;999.90;;;;;;;2.87;100.00;98272.66;5077784;28;20047;-83
2022/12/02 01:00:33;;;;;;;1999.90;999.90;;;;;;;2.77;100.00;98279.72;5077800;28;20021;-81
2022/12/02 01:02:58;;;;;;;1999.90;999.90;;;;;;;2.77;100.00;98272.44;5077846;28;20068;-82
2022/12/02 01:05:24;;;;;;;1999.90;999.90;;;;;;;2.79;100.00;98274.94;5077879;28;20063;-84
2022/12/02 01:07:51;;;;;;;1999.90;999.90;;;;;;;2.76;100.00;98260.00;5078290;28;20017;-83
2022/12/02 01:10:22;;;;;;;1999.90;999.90;;;;;;;2.95;100.00;98282.28;5078458;28;20041;-78
2022/12/02 01:12:48;;;;;;;1999.90;999.90;;;;;;;2.99;100.00;98278.03;5078327;28;20037;-82
2022/12/02 01:15:13;;;;;;;1999.90;999.90;;;;;;;2.86;100.00;98271.03;5077171;28;20048;-87
2022/12/02 01:17:39;;;;;;;1999.90;999.90;;;;;;;2.80;100.00;98266.56;5077415;28;20009;-85
2022/12/02 01:20:04;;;;;;;1999.90;999.90;;;;;;;2.81;100.00;98272.81;5076184;28;20013;-85
2022/12/02 01:22:30;;;;;;;1999.90;999.90;;;;;;;2.89;100.00;98291.31;5073518;28;20055;-85
2022/12/02 01:24:55;;;;;;;1999.90;999.90;;;;;;;2.75;100.00;98277.28;5072106;28;20017;-85
2022/12/02 01:27:21;;;;;;;1999.90;999.90;;;;;;;2.68;100.00;98263.06;5068714;28;20029;-85
2022/12/02 01:29:47;;;;;;;1999.90;999.90;;;;;;;2.68;100.00;98285.50;5070761;28;20031;-85
2022/12/02 01:32:12;;;;;;;1999.90;999.90;;;;;;;2.70;100.00;98286.06;5071513;28;20053;-83
2022/12/02 01:34:37;;;;;;;1999.90;999.90;;;;;;;2.68;100.00;98281.97;5071446;28;20084;-83
2022/12/02 01:37:03;;;;;;;1999.90;999.90;;;;;;;2.51;100.00;98281.88;5071921;28;20040;-83
2022/12/02 01:39:28;;;;;;;1999.90;999.90;;;;;;;2.46;100.00;98280.94;5071243;28;20028;-85
2022/12/02 01:41:53;;;;;;;1999.90;999.90;;;;;;;2.57;100.00;98262.03;5072092;28;20017;-83
2022/12/02 01:44:19;;;;;;;1999.90;999.90;;;;;;;2.66;100.00;98273.31;5071269;28;20021;-83
2022/12/02 01:46:44;;;;;;;1999.90;999.90;;;;;;;2.72;100.00;98278.56;5071579;28;20060;-85
2022/12/02 01:49:10;;;;;;;1999.90;999.90;;;;;;;2.70;100.00;98279.84;5069950;28;20025;-84
2022/12/02 01:51:35;;;;;;;1999.90;999.90;;;;;;;2.74;100.00;98272.94;5069730;28;20028;-84
2022/12/02 01:54:02;;;;;;;1999.90;999.90;;;;;;;2.78;100.00;98275.97;5068097;28;20029;-85
2022/12/02 01:56:27;;;;;;;1999.90;999.90;;;;;;;2.68;100.00;98266.59;5068680;28;20021;-83
2022/12/02 01:58:53;;;;;;;1999.90;999.90;;;;;;;2.69;100.00;98286.34;5068883;28;20036;-85
2022/12/02 02:01:30;;;;;;;1999.90;999.90;;;;;;;2.55;100.00;98274.13;5069104;28;20032;-87
2022/12/02 02:03:55;;;;;;;1999.90;999.90;;;;;;;2.63;100.00;98279.97;5066667;28;20021;-82
2022/12/02 02:06:23;;;;;;;1999.90;999.90;;;;;;;2.63;100.00;98274.56;5070147;28;20020;-83
2022/12/02 02:08:49;;;;;;;1999.90;999.90;;;;;;;2.58;100.00;98281.75;5067896;28;20064;-81
2022/12/02 02:11:15;;;;;;;1999.90;999.90;;;;;;;2.51;100.00;98279.16;5069094;28;20029;-84
2022/12/02 02:13:40;;;;;;;1999.90;999.90;;;;;;;2.50;100.00;98272.16;5069701;28;20051;-81
2022/12/02 02:16:06;;;;;;;1999.90;999.90;;;;;;;2.52;100.00;98270.03;5069462;28;20108;-84
2022/12/02 02:18:31;;;;;;;1999.90;999.90;;;;;;;2.43;100.00;98262.50;5069975;28;20088;-83
2022/12/02 02:20:58;;;;;;;1999.90;999.90;;;;;;;2.39;100.00;98266.72;5069106;28;20033;-81
2022/12/02 02:23:25;;;;;;;1999.90;999.90;;;;;;;2.42;100.00;98268.97;5067990;28;20049;-83
2022/12/02 02:25:54;;;;;;;1999.90;999.90;;;;;;;2.45;100.00;98271.19;5066885;28;20111;-84
2022/12/02 02:28:23;;;;;;;1999.90;999.90;;;;;;;2.65;100.00;98277.06;5066783;28;20420;-84
2022/12/02 02:30:50;;;;;;;1999.90;999.90;;;;;;;2.69;100.00;98276.31;5068509;28;20029;-82
2022/12/02 02:33:16;;;;;;;1999.90;999.90;;;;;;;2.65;100.00;98274.34;5069370;28;20072;-82
2022/12/02 02:35:43;;;;;;;1999.90;999.90;;;;;;;2.52;100.00;98274.59;5065975;28;20017;-86
2022/12/02 02:38:12;;;;;;;1999.90;999.90;;;;;;;2.46;100.00;98270.13;5066822;28;20029;-86
2022/12/02 02:40:38;;;;;;;1999.90;999.90;;;;;;;2.51;100.00;98267.53;5065581;28;20017;-84
2022/12/02 02:43:04;;;;;;;1999.90;999.90;;;;;;;2.34;100.00;98264.75;5066067;28;20024;-82
2022/12/02 02:45:34;;;;;;;1999.90;999.90;;;;;;;2.35;100.00;98273.69;5045038;28;20021;-84
2022/12/02 02:48:01;;;;;;;1999.90;999.90;;;;;;;2.30;100.00;98265.44;5045633;28;20029;-82
2022/12/02 02:50:28;;;;;;;1999.90;999.90;;;;;;;2.31;100.00;98261.69;5046227;28;20029;-80
2022/12/02 02:52:54;;;;;;;1999.90;999.90;;;;;;;2.40;100.00;98263.00;5047615;28;20040;-79
2022/12/02 02:55:22;;;;;;;1999.90;999.90;;;;;;;2.56;100.00;98265.81;5051280;28;20036;-84
2022/12/02 02:57:48;;;;;;;1999.90;999.90;;;;;;;2.45;100.00;98263.09;5053906;28;20025;-82
2022/12/02 03:00:15;;;;;;;1999.90;999.90;;;;;;;2.13;100.00;98276.13;5054296;28;20118;-84
2022/12/02 03:02:43;;;;;;;1999.90;999.90;;;;;;;2.15;100.00;98271.31;5055004;28;20025;-82
2022/12/02 03:05:08;;;;;;;1999.90;999.90;;;;;;;2.17;100.00;98270.03;5051245;28;20049;-84
2022/12/02 03:07:35;;;;;;;1999.90;999.90;;;;;;;2.13;100.00;98266.13;5052818;28;20433;-81
2022/12/02 03:10:01;;;;;;;1999.90;999.90;;;;;;;2.27;100.00;98265.91;5052183;28;20025;-82
2022/12/02 03:12:27;;;;;;;1999.90;999.90;;;;;;;2.34;100.00;98253.13;5052467;28;20025;-84
2022/12/02 03:14:53;;;;;;;1999.90;999.90;;;;;;;2.19;100.00;98240.13;5052856;28;20562;-84
2022/12/02 03:17:19;;;;;;;1999.90;999.90;;;;;;;2.21;100.00;98272.25;5052868;28;20024;-85
2022/12/02 03:19:45;;;;;;;1999.90;999.90;;;;;;;2.17;100.00;98261.94;5052823;28;20026;-85
2022/12/02 03:22:11;;;;;;;1999.90;999.90;;;;;;;2.27;100.00;98260.53;5053432;28;20047;-83
2022/12/02 03:24:37;;;;;;;1999.90;999.90;;;;;;;2.25;100.00;98263.47;5052734;28;21059;-85
2022/12/02 03:27:04;;;;;;;1999.90;999.90;;;;;;;2.26;100.00;98259.69;5051835;28;20017;-85
2022/12/02 03:29:31;;;;;;;1999.90;999.90;;;;;;;2.26;100.00;98258.88;5050979;28;20032;-82
2022/12/02 03:31:59;;;;;;;1999.90;999.90;;;;;;;2.27;100.00;98257.81;5053714;28;20067;-83
2022/12/02 03:34:24;;;;;;;1999.90;999.90;;;;;;;2.26;100.00;98258.88;5053341;28;20064;-82
2022/12/02 03:36:50;;;;;;;1999.90;999.90;;;;;;;2.12;100.00;98259.13;5051446;28;20390;-83
2022/12/02 03:39:16;;;;;;;1999.90;999.90;;;;;;;2.22;100.00;98255.03;5069774;28;20029;-83
2022/12/02 03:41:42;;;;;;;1999.90;999.90;;;;;;;2.21;100.00;98256.06;5069654;28;20049;-83
2022/12/02 03:44:08;;;;;;;1999.90;999.90;;;;;;;2.14;100.00;98250.78;5069470;28;20025;-83
2022/12/02 03:46:33;;;;;;;1999.90;999.90;;;;;;;2.24;100.00;98256.41;5071941;28;20040;-86
2022/12/02 03:49:01;;;;;;;1999.90;999.90;;;;;;;2.18;100.00;98246.56;5077007;28;20028;-84
2022/12/02 03:51:26;;;;;;;1999.90;999.90;;;;;;;2.21;100.00;98256.06;5092573;28;20086;-85
2022/12/02 03:53:52;;;;;;;1999.90;999.90;;;;;;;2.06;100.00;98257.34;5083136;28;20033;-86
2022/12/02 03:56:18;;;;;;;1999.90;999.90;;;;;;;2.02;100.00;98244.56;5082264;28;20091;-86
2022/12/02 03:58:46;;;;;;;1999.90;999.90;;;;;;;2.11;100.00;98256.66;5088559;28;20028;-82
2022/12/02 04:01:13;;;;;;;1999.90;999.90;;;;;;;2.09;100.00;98243.41;5092425;28;20032;-84
2022/12/02 04:03:38;;;;;;;1999.90;999.90;;;;;;;2.07;100.00;98245.50;5087701;28;20024;-87
2022/12/02 04:06:04;;;;;;;1999.90;999.90;;;;;;;2.02;100.00;98249.94;5075272;28;20102;-83
2022/12/02 04:08:29;;;;;;;1999.90;999.90;;;;;;;2.04;100.00;98243.25;5074240;28;20033;-84
2022/12/02 04:10:55;;;;;;;1999.90;999.90;;;;;;;2.01;100.00;98246.44;5074861;28;20020;-85
2022/12/02 04:13:20;;;;;;;1999.90;999.90;;;;;;;2.06;100.00;98238.47;5072902;28;20120;-82
2022/12/02 04:15:45;;;;;;;1999.90;999.90;;;;;;;2.13;100.00;98260.75;5071719;28;20028;-82
2022/12/02 04:18:11;;;;;;;1999.90;999.90;;;;;;;2.11;100.00;98238.59;5073779;28;20520;-82
2022/12/02 04:20:36;;;;;;;1999.90;999.90;;;;;;;2.21;100.00;98248.78;5072200;28;20024;-86
2022/12/02 04:23:02;;;;;;;1999.90;999.90;;;;;;;2.14;100.00;98261.56;5069798;28;20070;-85
2022/12/02 04:25:27;;;;;;;1999.90;999.90;;;;;;;2.08;100.00;98247.16;5075028;28;20120;-86
2022/12/02 04:27:52;;;;;;;1999.90;999.90;;;;;;;2.25;100.00;98249.16;5071635;28;20028;-85
2022/12/02 04:30:18;;;;;;;1999.90;999.90;;;;;;;2.26;100.00;98231.88;5072076;28;20033;-83
2022/12/02 04:32:43;;;;;;;1999.90;999.90;;;;;;;2.35;100.00;98246.69;5072822;28;20012;-87
2022/12/02 04:35:09;;;;;;;1999.90;999.90;;;;;;;2.36;100.00;98240.22;5071354;28;20036;-86
2022/12/02 04:37:34;;;;;;;1999.90;999.90;;;;;;;2.46;100.00;98238.56;5070974;28;20127;-86
2022/12/02 04:39:59;;;;;;;1999.90;999.90;;;;;;;2.52;100.00;98250.28;5071450;28;20033;-84
2022/12/02 04:42:25;;;;;;;1999.90;999.90;;;;;;;2.40;100.00;98239.53;5072280;28;20025;-84
2022/12/02 04:44:50;;;;;;;1999.90;999.90;;;;;;;2.30;100.00;98241.97;5071167;28;20025;-81
2022/12/02 04:47:16;;;;;;;1999.90;999.90;;;;;;;2.42;100.00;98242.78;5072045;28;20032;-85
2022/12/02 04:49:41;;;;;;;1999.90;999.90;;;;;;;2.44;100.00;98242.56;5074554;28;20025;-87
2022/12/02 04:52:07;;;;;;;1999.90;999.90;;;;;;;2.30;100.00;98224.97;5074304;28;20035;-86
2022/12/02 04:54:32;;;;;;;1999.90;999.90;;;;;;;2.38;100.00;98238.13;5076256;28;20032;-88
2022/12/02 04:56:57;;;;;;;1999.90;999.90;;;;;;;2.41;100.00;98249.25;5076564;28;19997;-86
2022/12/02 04:59:23;;;;;;;1999.90;999.90;;;;;;;2.34;100.00;98245.88;5075120;28;20032;-85
2022/12/02 05:01:48;;;;;;;1999.90;999.90;;;;;;;2.29;100.00;98250.34;5074578;28;20043;-81
2022/12/02 05:04:13;;;;;;;1999.90;999.90;;;;;;;2.31;100.00;98245.50;5074506;28;20049;-83
2022/12/02 05:06:39;;;;;;;1999.90;999.90;;;;;;;2.24;100.00;98242.09;5075175;28;20029;-85
2022/12/02 05:09:04;;;;;;;1999.90;999.90;;;;;;;2.15;100.00;98231.69;5073589;28;20020;-86
2022/12/02 05:11:31;;;;;;;1999.90;999.90;;;;;;;2.12;100.00;98237.53;5072626;28;20045;-85
2022/12/02 05:13:56;;;;;;;1999.90;999.90;;;;;;;2.13;100.00;98230.28;5073268;28;20033;-84
2022/12/02 05:16:21;;;;;;;1999.90;999.90;;;;;;;2.04;100.00;98229.78;5072133;28;20040;-86
2022/12/02 05:18:47;;;;;;;1999.90;999.90;;;;;;;2.05;100.00;98231.44;5071264;28;20021;-83
2022/12/02 05:21:12;;;;;;;1999.90;999.90;;;;;;;2.07;100.00;98245.50;5071109;28;20445;-81
2022/12/02 05:23:37;;;;;;;1999.90;999.90;;;;;;;2.09;100.00;98248.81;5069863;28;20052;-84
2022/12/02 05:26:03;;;;;;;1999.90;999.90;;;;;;;2.08;100.00;98249.84;5070640;28;20033;-83
2022/12/02 05:28:28;;;;;;;1999.90;999.90;;;;;;;2.00;100.00;98260.16;5072482;28;20021;-87
2022/12/02 05:30:54;;;;;;;1999.90;999.90;;;;;;;2.06;100.00;98260.06;5072993;28;20033;-85
2022/12/02 05:33:19;;;;;;;1999.90;999.90;;;;;;;2.02;100.00;98255.34;5073285;28;20036;-84
2022/12/02 05:35:44;;;;;;;1999.90;999.90;;;;;;;2.04;100.00;98256.75;5069848;28;20025;-87
2022/12/02 05:38:09;;;;;;;1999.90;999.90;;;;;;;1.96;100.00;98257.09;5065104;28;20371;-85
2022/12/02 05:40:35;;;;;;;1999.90;999.90;;;;;;;1.89;100.00;98247.47;5053122;28;20033;-86
2022/12/02 05:43:18;;;;;;;1999.90;999.90;;;;;;;2.01;100.00;98268.00;5050101;28;20700;-82
2022/12/02 05:45:45;;;;;;;1999.90;999.90;;;;;;;1.89;100.00;98259.09;5048451;28;20040;-86
2022/12/02 05:48:18;;;;;;;1999.90;999.90;;;;;;;1.90;100.00;98276.91;5049079;28;20034;-80
2022/12/02 05:50:44;;;;;;;1999.90;999.90;;;;;;;1.86;100.00;98259.56;5047893;28;20025;-83
2022/12/02 05:53:25;;;;;;;1999.90;999.90;;;;;;;1.90;100.00;98268.84;5048974;28;20045;-85
2022/12/02 05:55:52;;;;;;;1999.90;999.90;;;;;;;1.99;100.00;98270.13;5046393;28;20030;-83
2022/12/02 05:58:17;;;;;;;1999.90;999.90;;;;;;;1.93;100.00;98259.44;5047349;28;20060;-83
2022/12/02 06:00:44;;;;;;;1999.90;999.90;;;;;;;1.92;100.00;98269.41;5047112;28;20037;-82
2022/12/02 06:03:17;;;;;;;1999.90;999.90;;;;;;;1.80;100.00;98263.19;5051207;28;20041;-82
2022/12/02 06:05:43;;;;;;;1999.90;999.90;;;;;;;1.78;100.00;98267.16;5053389;28;20048;-85
2022/12/02 06:08:18;;;;;;;1999.90;999.90;;;;;;;1.70;100.00;98265.59;5054149;28;20052;-87
2022/12/02 06:10:54;;;;;;;1999.90;999.90;;;;;;;1.69;100.00;98264.00;5052106;28;20029;-84
2022/12/02 06:13:20;;;;;;;1999.90;999.90;;;;;;;1.72;100.00;98266.22;5050962;28;20014;-85
2022/12/02 06:15:46;;;;;;;1999.90;999.90;;;;;;;1.72;100.00;98265.41;5057165;28;20029;-85
2022/12/02 06:18:14;;;;;;;1999.90;999.90;;;;;;;1.69;100.00;98265.84;5070363;28;20021;-84
2022/12/02 06:20:40;;;;;;;1999.90;999.90;;;;;;;1.53;100.00;98264.66;5050973;28;20034;-84
2022/12/02 06:23:12;;;;;;;1999.90;999.90;;;;;;;1.57;100.00;98272.03;5070839;28;20025;-84
2022/12/02 06:25:39;;;;;;;1999.90;999.90;;;;;;;1.57;100.00;98266.63;5071810;28;20067;-83
2022/12/02 06:28:22;;;;;;;1999.90;999.90;;;;;;;1.60;100.00;98270.72;5073356;28;20029;-83
2022/12/02 06:30:47;;;;;;;1999.90;999.90;;;;;;;1.61;100.00;98272.38;5073278;28;20048;-82
2022/12/02 06:33:31;;;;;;;1999.90;999.90;;;;;;;1.60;100.00;98276.13;5068162;28;20025;-82
2022/12/02 06:36:00;;;;;;;1999.90;999.90;;;;;;;1.63;100.00;98286.44;5062628;28;20037;-84
2022/12/02 06:38:30;;;;;;;1999.90;999.90;;;;;;;1.56;100.00;98283.88;5068709;28;20036;-83
2022/12/02 06:40:59;;;;;;;1999.90;999.90;;;;;;;1.53;100.00;98286.22;5071170;28;20021;-82
2022/12/02 06:43:30;;;;;;;1999.90;999.90;;;;;;;1.46;100.00;98275.53;5072288;28;20033;-82
2022/12/02 06:45:57;;;;;;;1999.90;999.90;;;;;;;1.45;100.00;98284.66;5073507;28;20013;-86
2022/12/02 06:48:35;;;;;;;1999.90;999.90;;;;;;;1.45;100.00;98289.22;5076826;28;20032;-86
2022/12/02 06:51:30;;;;;;;1999.90;999.90;;;;;;;1.47;100.00;98287.13;5075101;28;20029;-80
2022/12/02 06:53:55;;;;;;;1999.90;999.90;;;;;;;1.42;100.00;98285.09;5067313;28;20498;-81
2022/12/02 06:56:23;;;;;;;1999.90;999.90;;;;;;;1.49;100.00;98296.63;5072373;28;20040;-76
2022/12/02 06:58:52;;;;;;;1999.90;999.90;;;;;;;1.54;100.00;98293.22;5073651;28;20066;-84
2022/12/02 07:01:27;;;;;;;1999.90;999.90;;;;;;;1.44;100.00;98293.75;5075713;28;20025;-79
2022/12/02 07:03:58;;;;;;;1999.90;999.90;;;;;;;1.53;100.00;98291.59;5076954;28;19997;-82
2022/12/02 07:06:25;;;;;;;1999.90;999.90;;;;;;;1.51;100.00;98285.59;5078141;28;20021;-83
2022/12/02 07:08:54;;;;;;;1999.90;999.90;;;;;;;1.44;100.00;98287.59;5054163;28;20053;-83
2022/12/02 07:11:21;;;;;;;1999.90;999.90;;;;;;;1.58;100.00;98299.81;5051274;28;20044;-85
2022/12/02 07:13:48;;;;;;;1999.90;999.90;;;;;;;1.66;100.00;98293.28;5051692;28;20039;-84
2022/12/02 07:16:50;;;;;;;1999.90;999.90;;;;;;;1.71;100.00;98305.00;5051803;28;20025;-83
2022/12/02 07:19:19;;;;;;;1999.90;999.90;;;;;;;1.67;100.00;98295.72;5028778;28;20136;-83
2022/12/02 07:21:47;;;;;;;1999.90;999.90;;;;;;;1.77;100.00;98303.25;5046683;28;20177;-82
2022/12/02 07:24:19;;;;;;;1999.90;999.90;;;;;;;1.83;100.00;98307.72;5051444;28;20009;-84
2022/12/02 07:26:46;;;;;;;1999.90;999.90;;;;;;;1.75;100.00;98311.59;5074498;28;20033;-86
2022/12/02 07:29:28;;;;;;;1999.90;999.90;;;;;;;1.80;100.00;98313.59;5075161;28;20025;-87
2022/12/02 07:31:53;;;;;;;1999.90;999.90;;;;;;;1.87;100.00;98315.13;5079100;28;20013;-84
2022/12/02 07:34:19;;;;;;;1999.90;999.90;;;;;;;1.95;100.00;98312.09;5078461;28;20436;-86
2022/12/02 07:36:44;;;;;;;1999.90;999.90;;;;;;;1.97;100.00;98325.38;5077694;28;20005;-86
2022/12/02 07:39:09;;;;;;;1999.90;999.90;;;;;;;2.02;100.00;98323.59;5073857;28;20029;-86
2022/12/02 07:41:34;;;;;;;1999.90;999.90;;;;;;;2.01;100.00;98310.34;5068143;28;20064;-85
2022/12/02 07:44:00;;;;;;;1999.90;999.90;;;;;;;2.13;100.00;98320.09;5067700;28;20036;-79
2022/12/02 07:46:28;;;;;;;1999.90;999.90;;;;;;;2.03;100.00;98319.88;5071267;28;20008;-82
2022/12/02 07:48:54;;;;;;;1999.90;999.90;;;;;;;2.22;100.00;98317.06;5076185;28;20033;-85
2022/12/02 07:51:19;;;;;;;1999.90;999.90;;;;;;;2.13;100.00;98325.50;5076846;28;20013;-86
2022/12/02 07:53:44;;;;;;;1999.90;999.90;;;;;;;2.23;100.00;98319.53;5077672;28;20039;-86
2022/12/02 07:56:10;;;;;;;1999.90;999.90;;;;;;;2.21;100.00;98323.50;5076853;28;20013;-86
2022/12/02 07:58:35;;;;;;;1999.90;999.90;;;;;;;2.22;100.00;98323.28;5073447;28;20025;-86
2022/12/02 08:01:00;;;;;;;1999.90;999.90;;;;;;;2.21;100.00;98324.34;5076546;28;20029;-86
2022/12/02 08:03:26;;;;;;;1999.90;999.90;;;;;;;2.29;100.00;98318.59;5077190;28;20029;-86
2022/12/02 08:05:51;;;;;;;1999.90;999.90;;;;;;;2.39;100.00;98328.81;5074747;28;20104;-85
2022/12/02 08:08:16;;;;;;;1999.90;999.90;;;;;;;2.36;100.00;98321.19;5077679;28;20013;-85
2022/12/02 08:10:42;;;;;;;1999.90;999.90;;;;;;;2.55;100.00;98328.94;5075883;28;20055;-82
2022/12/02 08:13:07;;;;;;;1999.90;999.90;;;;;;;2.43;100.00;98311.94;5074821;28;20021;-82
2022/12/02 08:15:32;;;;;;;1999.90;999.90;;;;;;;2.53;100.00;98332.94;5074582;28;20013;-85
2022/12/02 08:17:58;;;;;;;1999.90;999.90;;;;;;;2.62;100.00;98335.06;5079094;28;20052;-84
2022/12/02 08:20:23;;;;;;;1999.90;999.90;;;;;;;2.63;100.00;98325.06;5077712;28;20095;-84
2022/12/02 08:22:48;;;;;;;1999.90;999.90;;;;;;;2.63;100.00;98325.88;5076096;28;20009;-84
2022/12/02 08:25:14;;;;;;;1999.90;999.90;;;;;;;2.63;100.00;98330.47;5073915;28;20029;-88
2022/12/02 08:27:39;;;;;;;1999.90;999.90;;;;;;;2.57;100.00;98334.09;5073215;28;20021;-80
2022/12/02 08:30:07;;;;;;;1999.90;999.90;;;;;;;2.66;100.00;98333.50;5072877;28;20020;-82
2022/12/02 08:32:32;;;;;;;1999.90;999.90;;;;;;;2.70;100.00;98323.06;5072955;28;20024;-83
2022/12/02 08:34:58;;;;;;;1999.90;999.90;;;;;;;2.62;100.00;98323.44;5071968;28;20017;-80
2022/12/02 08:37:23;;;;;;;1999.90;999.90;;;;;;;2.75;100.00;98334.00;5072546;28;20009;-82
2022/12/02 08:39:49;;;;;;;1999.90;999.90;;;;;;;2.84;100.00;98334.44;5073019;28;20544;-85
2022/12/02 08:42:16;;;;;;;1999.90;999.90;;;;;;;2.74;100.00;98337.75;5072187;28;20037;-83
2022/12/02 08:44:41;;;;;;;1999.90;999.90;;;;;;;2.78;100.00;98327.28;5072745;28;20009;-81
2022/12/02 08:47:06;;;;;;;1999.90;999.90;;;;;;;2.79;100.00;98329.75;5071765;28;20060;-83
2022/12/02 08:49:32;;;;;;;1999.90;999.90;;;;;;;2.91;100.00;98344.09;5070647;28;20021;-80
2022/12/02 08:51:57;;;;;;;1999.90;999.90;;;;;;;2.82;100.00;98329.25;5071460;28;20052;-82
2022/12/02 08:54:22;;;;;;;1999.90;999.90;;;;;;;2.89;100.00;98340.78;5073894;28;20033;-82
2022/12/02 08:56:48;;;;;;;1999.90;999.90;;;;;;;2.90;100.00;98337.03;5076689;28;20050;-85
2022/12/02 08:59:13;;;;;;;1999.90;999.90;;;;;;;2.97;100.00;98342.31;5076762;28;20053;-86
2022/12/02 09:01:39;;;;;;;1999.90;999.90;;;;;;;2.86;100.00;98325.03;5076636;28;20033;-87
2022/12/02 09:04:04;;;;;;;1999.90;999.90;;;;;;;3.04;100.00;98333.00;5076071;28;20045;-87
2022/12/02 09:06:30;;;;;;;1999.90;999.90;;;;;;;3.14;100.00;98343.19;5077113;28;20571;-81
2022/12/02 09:08:55;;;;;;;1999.90;999.90;;;;;;;3.09;100.00;98335.00;5071117;28;20025;-85
2022/12/02 09:11:21;;;;;;;1999.90;999.90;;;;;;;3.13;100.00;98328.88;5072377;28;20029;-81
2022/12/02 09:13:46;;;;;;;1999.90;999.90;;;;;;;3.09;100.00;98325.00;5075435;28;20032;-86
2022/12/02 09:16:12;;;;;;;1999.90;999.90;;;;;;;3.11;100.00;98322.06;5076617;28;20024;-84
2022/12/02 09:18:37;;;;;;;1999.90;999.90;;;;;;;3.22;100.00;98326.63;5076926;28;20081;-87
2022/12/02 09:21:03;;;;;;;1999.90;999.90;;;;;;;3.28;100.00;98328.38;5075976;28;20028;-82
2022/12/02 09:23:29;;;;;;;1999.90;999.90;;;;;;;3.42;100.00;98334.31;5076258;28;20040;-86
2022/12/02 09:25:54;;;;;;;1999.90;999.90;;;;;;;3.49;100.00;98329.59;5076187;28;20016;-83
2022/12/02 09:28:22;;;;;;;1999.90;999.90;;;;;;;3.71;100.00;98342.22;5076593;28;20064;-82
2022/12/02 09:30:48;;;;;;;1999.90;999.90;;;;;;;3.85;100.00;98345.44;5076252;28;20055;-83
2022/12/02 09:33:13;;;;;;;1999.90;999.90;;;;;;;3.82;100.00;98332.41;5076104;28;20029;-85
2022/12/02 09:35:39;;;;;;;1999.90;999.90;;;;;;;3.78;100.00;98329.38;5073555;28;20025;-82
2022/12/02 09:38:04;;;;;;;1999.90;999.90;;;;;;;4.16;100.00;98335.97;5072079;28;20043;-83
2022/12/02 09:40:31;;;;;;;1999.90;999.90;;;;;;;3.88;100.00;98326.03;5073772;28;20012;-83
2022/12/02 09:42:56;;;;;;;1999.90;999.90;;;;;;;4.10;100.00;98331.53;5070799;28;20009;-85
2022/12/02 09:45:22;;;;;;;1999.90;999.90;;;;;;;4.14;100.00;98322.69;5070789;28;20092;-85
2022/12/02 09:47:47;;;;;;;1999.90;999.90;;;;;;;4.16;100.00;98323.28;5070433;28;20031;-85
2022/12/02 09:50:13;;;;;;;1999.90;999.90;;;;;;;4.22;100.00;98326.88;5071424;28;20055;-83
2022/12/02 09:52:39;;;;;;;1999.90;999.90;;;;;;;4.66;100.00;98320.53;5072156;28;20028;-84
2022/12/02 09:55:12;;;;;;;1999.90;999.90;;;;;;;4.75;100.00;98318.22;5072232;28;20044;-84
2022/12/02 09:57:37;;;;;;;1999.90;999.90;;;;;;;4.63;100.00;98321.03;5072658;28;20039;-86
2022/12/02 10:00:11;;;;;;;1999.90;999.90;;;;;;;4.53;100.00;98320.06;5072331;28;20483;-84
2022/12/02 10:02:43;;;;;;;1999.90;999.90;;;;;;;4.19;100.00;98313.84;5071246;28;20025;-84
2022/12/02 10:05:14;;;;;;;1999.90;999.90;;;;;;;4.01;100.00;98316.78;5071502;28;20088;-84
2022/12/02 10:07:40;;;;;;;1999.90;999.90;;;;;;;4.13;100.00;98315.66;5071555;28;20055;-84
2022/12/02 10:10:17;;;;;;;1999.90;999.90;;;;;;;3.58;100.00;98263.25;5071248;28;20064;-85
2022/12/02 10:12:43;;;;;;;1999.90;999.90;;;;;;;3.93;100.00;98293.63;5072098;28;20364;-83
2022/12/02 10:15:31;;;;;;;1999.90;999.90;;;;;;;3.69;100.00;98249.69;5070312;28;20021;-85
2022/12/02 10:18:04;;;;;;;1999.90;999.90;;;;;;;3.94;100.00;98289.88;5071744;28;20088;-84
2022/12/02 10:20:33;;;;;;;1999.90;999.90;;;;;;;3.86;100.00;98287.56;5070460;28;20029;-87
2022/12/02 10:23:07;;;;;;;1999.90;999.90;;;;;;;3.92;100.00;98293.88;5071053;28;20021;-84
2022/12/02 10:25:34;;;;;;;1999.90;999.90;;;;;;;3.68;100.00;98282.38;5072159;28;20017;-86
2022/12/02 10:28:00;;;;;;;1999.90;999.90;;;;;;;3.78;100.00;98269.03;5070854;28;20005;-83
2022/12/02 10:30:27;;;;;;;1999.90;999.90;;;;;;;3.84;100.00;98289.69;5071735;28;20025;-82
2022/12/02 10:33:05;;;;;;;1999.90;999.90;;;;;;;3.85;100.00;98279.69;5070874;28;20029;-85
2022/12/02 10:36:05;;;;;;;1999.90;999.90;;;;;;;3.59;100.00;98259.47;5070772;28;20029;-84
2022/12/02 10:42:20;;;;;;;1999.90;999.90;;;;;;;4.00;100.00;98298.88;5077008;28;20068;-88
2022/12/02 10:45:28;;;;;;;1999.90;999.90;;;;;;;3.64;100.00;98249.56;5076271;28;20076;-88
2022/12/02 10:48:15;;;;;;;1999.90;999.90;;;;;;;3.98;100.00;98296.41;5072587;28;20015;-84
2022/12/02 10:50:43;;;;;;;1999.90;999.90;;;;;;;3.72;100.00;98275.41;5066017;28;20024;-83
2022/12/02 10:53:18;;;;;;;1999.90;999.90;;;;;;;3.94;100.00;98287.16;5074516;28;20028;-85
2022/12/02 10:55:45;;;;;;;1999.90;999.90;;;;;;;3.65;100.00;98253.94;5073914;28;20016;-86
2022/12/02 10:58:31;;;;;;;1999.90;999.90;;;;;;;4.08;100.00;98291.19;5074296;28;20007;-88
2022/12/02 11:01:10;;;;;;;1999.90;999.90;;;;;;;3.83;100.00;98239.34;5073566;28;20043;-88
2022/12/02 11:03:36;;;;;;;1999.90;999.90;;;;;;;4.04;100.00;98278.41;5074248;28;20032;-84